Time;durP1;ratioP1;P1;durP2;ratioP2;P2;SDS_P1;SDS_P2;PMS_P1;PMS_P2;Temp;Humidity;BMP_temperature;BMP_pressure;BME280_temperature;BME280_humidity;BME280_pressure;Samples;Min_cycle;Max_cycle;Signal;HPM_P1;HPM_P2
2022/05/05 00:01:41;;;;;;;10.98;6.43;;;7.70;99.90;;;;;;4923564;29;20076;-66
2022/05/05 00:04:07;;;;;;;15.10;5.97;;;7.60;99.90;;;;;;4934420;29;20465;-66
2022/05/05 00:06:33;;;;;;;11.90;6.03;;;7.50;99.90;;;;;;4929662;29;20076;-66
2022/05/05 00:08:59;;;;;;;10.50;6.63;;;7.40;99.90;;;;;;4930370;29;20058;-66
2022/05/05 00:14:25;;;;;;;10.00;6.30;;;7.60;99.90;;;;;;4936141;29;20414;-66
2022/05/05 00:16:51;;;;;;;13.00;6.72;;;7.50;99.90;;;;;;4931435;29;20478;-66
2022/05/05 00:19:16;;;;;;;7.95;5.65;;;7.50;99.90;;;;;;4934321;29;20051;-66
2022/05/05 00:21:42;;;;;;;10.85;6.15;;;7.50;99.90;;;;;;4935953;29;20051;-66
2022/05/05 00:24:08;;;;;;;9.85;5.53;;;7.40;99.90;;;;;;4928707;29;20037;-66
2022/05/05 00:26:34;;;;;;;13.88;6.35;;;7.20;99.90;;;;;;4926461;29;20046;-66
2022/05/05 00:29:00;;;;;;;11.07;5.75;;;7.10;99.90;;;;;;4935368;29;20148;-66
2022/05/05 00:31:25;;;;;;;14.25;6.88;;;7.00;99.90;;;;;;4934895;29;20122;-67
2022/05/05 00:33:51;;;;;;;11.77;6.50;;;6.90;99.90;;;;;;4921388;29;20123;-66
2022/05/05 00:36:17;;;;;;;12.73;6.40;;;6.80;99.90;;;;;;4930504;29;20434;-66
2022/05/05 00:38:42;;;;;;;8.20;5.80;;;6.60;99.90;;;;;;4935699;29;20098;-66
2022/05/05 00:41:10;;;;;;;8.85;5.70;;;6.50;99.90;;;;;;4923617;29;20042;-66
2022/05/05 00:43:36;;;;;;;7.95;5.65;;;6.40;99.90;;;;;;4933982;29;20164;-66
2022/05/05 00:46:03;;;;;;;9.55;6.10;;;6.40;99.90;;;;;;4935523;29;20130;-66
2022/05/05 00:48:29;;;;;;;10.40;6.35;;;6.30;99.90;;;;;;4930764;29;20043;-66
2022/05/05 00:50:55;;;;;;;11.30;6.25;;;6.20;99.90;;;;;;4934998;29;20043;-66
2022/05/05 00:53:22;;;;;;;9.25;5.78;;;6.20;99.90;;;;;;4935126;29;20040;-66
2022/05/05 00:55:51;;;;;;;9.98;6.30;;;6.10;99.90;;;;;;4932471;29;20066;-66
2022/05/05 00:58:18;;;;;;;10.45;6.22;;;6.00;99.90;;;;;;4922423;29;20042;-66
2022/05/05 01:00:44;;;;;;;10.25;6.10;;;5.90;99.90;;;;;;4935097;29;20047;-66
2022/05/05 01:03:11;;;;;;;9.63;6.35;;;6.00;99.90;;;;;;4923987;29;21288;-66
2022/05/05 01:05:38;;;;;;;11.68;6.22;;;5.90;99.90;;;;;;4921237;29;20091;-66
2022/05/05 01:08:05;;;;;;;10.38;5.88;;;5.90;99.90;;;;;;4935036;29;20055;-66
2022/05/05 01:10:31;;;;;;;8.18;5.70;;;5.80;99.90;;;;;;4935094;29;20051;-66
2022/05/05 01:12:56;;;;;;;9.35;5.90;;;5.70;99.90;;;;;;4926522;29;20051;-66
2022/05/05 01:15:22;;;;;;;12.77;6.68;;;5.60;99.90;;;;;;4918745;29;20062;-66
2022/05/05 01:17:48;;;;;;;10.13;6.75;;;5.60;99.90;;;;;;4931659;29;20098;-66
2022/05/05 01:20:17;;;;;;;9.85;6.32;;;5.60;99.90;;;;;;4935203;29;20052;-66
2022/05/05 01:22:43;;;;;;;12.30;6.47;;;5.60;99.90;;;;;;4921601;29;20515;-65
2022/05/05 01:28:11;;;;;;;11.02;7.50;;;5.80;99.90;;;;;;4934965;29;20051;-66
2022/05/05 01:30:45;;;;;;;14.02;7.72;;;5.90;99.90;;;;;;4923103;29;20151;-66
2022/05/05 01:33:14;;;;;;;12.02;7.07;;;6.00;99.90;;;;;;4933580;29;20559;-66
2022/05/05 01:35:41;;;;;;;14.52;7.50;;;6.00;99.90;;;;;;4933236;29;20179;-66
2022/05/05 01:38:09;;;;;;;13.50;7.40;;;5.90;99.90;;;;;;4934985;29;20047;-66
2022/05/05 01:40:36;;;;;;;13.23;7.95;;;6.00;99.90;;;;;;4930015;29;20094;-66
2022/05/05 01:43:04;;;;;;;15.23;7.97;;;6.00;99.90;;;;;;4932568;29;20051;-66
2022/05/05 01:45:31;;;;;;;13.30;8.38;;;6.00;99.90;;;;;;4934479;29;20118;-66
2022/05/05 01:47:57;;;;;;;12.50;7.47;;;6.00;99.90;;;;;;4925348;29;20379;-66
2022/05/05 01:50:24;;;;;;;14.38;8.80;;;6.10;99.90;;;;;;4930799;29;20036;-66
2022/05/05 01:52:50;;;;;;;16.33;9.13;;;6.20;99.90;;;;;;4934313;29;20060;-66
2022/05/05 01:55:15;;;;;;;13.52;8.40;;;6.40;99.90;;;;;;4927710;29;20039;-66
2022/05/05 01:57:41;;;;;;;13.57;7.55;;;6.40;99.90;;;;;;4931723;29;20070;-66
2022/05/05 02:00:07;;;;;;;14.27;8.10;;;6.30;99.90;;;;;;4934327;29;20055;-66
2022/05/05 02:02:33;;;;;;;13.57;8.30;;;6.10;99.90;;;;;;4933984;29;20553;-66
2022/05/05 02:04:58;;;;;;;14.10;7.88;;;6.00;99.90;;;;;;4917289;29;20130;-66
2022/05/05 02:07:25;;;;;;;13.15;7.97;;;6.00;99.90;;;;;;4929319;29;20046;-66
2022/05/05 02:09:50;;;;;;;10.82;7.57;;;5.90;99.90;;;;;;4934280;29;20044;-66
2022/05/05 02:12:16;;;;;;;13.35;8.05;;;5.90;99.90;;;;;;4924933;29;20114;-66
2022/05/05 02:14:41;;;;;;;13.32;8.25;;;6.00;99.90;;;;;;4931951;29;20051;-66
2022/05/05 02:17:07;;;;;;;16.10;8.70;;;5.90;99.90;;;;;;4933487;29;20043;-67
2022/05/05 02:19:32;;;;;;;15.77;9.52;;;6.00;99.90;;;;;;4922010;29;20191;-66
2022/05/05 02:21:58;;;;;;;18.92;10.07;;;6.00;99.90;;;;;;4932079;29;20047;-66
2022/05/05 02:24:23;;;;;;;16.60;9.65;;;6.10;99.90;;;;;;4933403;29;20035;-66
2022/05/05 02:26:49;;;;;;;18.70;9.43;;;6.10;99.90;;;;;;4934062;29;20066;-66
2022/05/05 02:29:15;;;;;;;18.92;9.32;;;6.20;99.90;;;;;;4921541;29;20091;-66
2022/05/05 02:31:40;;;;;;;15.50;8.75;;;6.10;99.90;;;;;;4933045;29;20055;-66
2022/05/05 02:34:08;;;;;;;15.50;9.10;;;6.00;99.90;;;;;;4933537;29;20054;-66
2022/05/05 02:39:22;;;;;;;16.85;8.85;;;6.10;99.90;;;;;;4928544;29;20576;-66
2022/05/05 02:41:48;;;;;;;14.05;8.63;;;6.00;99.90;;;;;;4933596;29;20079;-66
2022/05/05 02:44:14;;;;;;;15.90;9.73;;;5.90;99.90;;;;;;4934336;29;20089;-66
2022/05/05 02:46:39;;;;;;;16.73;10.45;;;5.80;99.90;;;;;;4922545;29;20107;-66
2022/05/05 02:49:05;;;;;;;18.35;10.07;;;5.80;99.90;;;;;;4933082;29;20095;-66
2022/05/05 02:51:30;;;;;;;21.38;10.35;;;5.80;99.90;;;;;;4934533;29;20457;-66
2022/05/05 02:56:40;;;;;;;14.77;9.77;;;5.70;99.90;;;;;;4933625;29;20051;-66
2022/05/05 02:59:06;;;;;;;17.23;10.23;;;5.60;99.90;;;;;;4934048;29;20130;-66
2022/05/05 03:01:32;;;;;;;14.85;9.77;;;5.60;99.90;;;;;;4919187;29;20078;-66
2022/05/05 03:03:58;;;;;;;17.88;9.32;;;5.50;99.90;;;;;;4924524;29;20043;-66
2022/05/05 03:06:23;;;;;;;19.85;10.50;;;5.50;99.90;;;;;;4934022;29;20043;-66
2022/05/05 03:08:49;;;;;;;17.60;10.23;;;5.50;99.90;;;;;;4922252;29;20040;-66
2022/05/05 03:11:14;;;;;;;15.55;9.90;;;5.50;99.90;;;;;;4929235;29;20067;-66
2022/05/05 03:13:40;;;;;;;17.67;10.02;;;5.50;99.90;;;;;;4920679;29;20048;-66
2022/05/05 03:16:06;;;;;;;18.48;10.27;;;5.50;99.90;;;;;;4928529;29;20048;-66
2022/05/05 03:18:31;;;;;;;15.93;10.52;;;5.40;99.90;;;;;;4934170;29;20078;-66
2022/05/05 03:20:57;;;;;;;20.58;10.57;;;5.30;99.90;;;;;;4928082;29;20064;-66
2022/05/05 03:23:22;;;;;;;22.98;10.35;;;5.30;99.90;;;;;;4916173;29;20024;-66
2022/05/05 03:25:48;;;;;;;16.80;10.05;;;5.30;99.90;;;;;;4932151;29;20521;-66
2022/05/05 03:28:14;;;;;;;18.05;10.93;;;5.20;99.90;;;;;;4924064;29;20051;-66
2022/05/05 03:30:40;;;;;;;19.02;10.38;;;5.20;99.90;;;;;;4934433;29;20066;-66
2022/05/05 03:33:07;;;;;;;20.92;10.80;;;5.20;99.90;;;;;;4937726;29;20114;-66
2022/05/05 03:35:33;;;;;;;17.88;10.40;;;5.20;99.90;;;;;;4937854;29;20095;-66
2022/05/05 03:37:59;;;;;;;21.65;11.73;;;5.20;99.90;;;;;;4922722;29;20514;-66
2022/05/05 03:40:25;;;;;;;16.85;10.25;;;5.20;99.90;;;;;;4931035;29;20528;-66
2022/05/05 03:42:50;;;;;;;17.15;10.05;;;5.20;99.90;;;;;;4933885;29;20424;-66
2022/05/05 03:45:16;;;;;;;18.92;10.07;;;5.10;99.90;;;;;;4915798;29;20044;-66
2022/05/05 03:47:41;;;;;;;19.88;10.95;;;5.10;99.90;;;;;;4926978;29;20510;-66
2022/05/05 03:50:08;;;;;;;18.83;10.43;;;5.10;99.90;;;;;;4937416;29;20052;-66
2022/05/05 03:52:34;;;;;;;16.75;9.45;;;5.10;99.90;;;;;;4923791;29;20044;-66
2022/05/05 03:55:00;;;;;;;18.35;9.57;;;5.00;99.90;;;;;;4932757;29;20387;-66
2022/05/05 03:57:25;;;;;;;17.38;11.23;;;4.90;99.90;;;;;;4931431;29;20051;-66
2022/05/05 03:59:51;;;;;;;15.23;9.85;;;4.90;99.90;;;;;;4932401;29;20044;-66
2022/05/05 04:02:17;;;;;;;14.20;9.57;;;4.80;99.90;;;;;;4934485;29;20047;-66
2022/05/05 04:04:42;;;;;;;16.42;9.73;;;4.80;99.90;;;;;;4936487;29;20047;-66
2022/05/05 04:07:08;;;;;;;16.77;9.93;;;4.80;99.90;;;;;;4935147;29;20031;-66
2022/05/05 04:09:33;;;;;;;14.98;10.20;;;4.80;99.90;;;;;;4922103;29;20569;-66
2022/05/05 04:11:59;;;;;;;16.73;10.30;;;4.90;99.90;;;;;;4935989;29;20048;-66
2022/05/05 04:14:25;;;;;;;19.67;10.52;;;4.90;99.90;;;;;;4935651;29;20091;-66
2022/05/05 04:16:51;;;;;;;22.52;11.52;;;5.00;99.90;;;;;;4926957;29;20557;-66
2022/05/05 04:19:17;;;;;;;20.17;10.93;;;5.10;99.90;;;;;;4927512;29;20043;-66
2022/05/05 04:21:42;;;;;;;19.90;11.57;;;5.20;99.90;;;;;;4934949;29;20082;-66
2022/05/05 04:24:08;;;;;;;18.83;11.85;;;5.30;99.90;;;;;;4936698;29;20040;-66
2022/05/05 04:26:34;;;;;;;21.40;11.60;;;5.40;99.90;;;;;;4925775;29;20036;-66
2022/05/05 04:29:00;;;;;;;17.90;11.88;;;5.40;99.90;;;;;;4934915;29;20027;-66
2022/05/05 04:31:29;;;;;;;21.35;12.45;;;5.50;99.90;;;;;;4936561;29;20130;-66
2022/05/05 04:33:55;;;;;;;18.52;11.57;;;5.50;99.90;;;;;;4932221;29;20102;-66
2022/05/05 04:36:20;;;;;;;20.15;12.43;;;5.60;99.90;;;;;;4930421;29;20047;-66
2022/05/05 04:38:46;;;;;;;23.25;12.02;;;5.80;99.90;;;;;;4936205;29;20062;-66
2022/05/05 04:41:11;;;;;;;21.25;12.60;;;5.90;99.90;;;;;;4935824;29;20047;-66
2022/05/05 04:43:37;;;;;;;19.42;12.07;;;6.00;99.90;;;;;;4927019;29;20071;-66
2022/05/05 04:46:03;;;;;;;18.88;11.55;;;6.00;99.90;;;;;;4919706;29;20032;-66
2022/05/05 04:48:29;;;;;;;17.42;11.32;;;6.10;99.90;;;;;;4930709;29;20044;-66
2022/05/05 04:50:54;;;;;;;17.45;11.30;;;6.10;99.90;;;;;;4925389;29;20127;-66
2022/05/05 04:53:20;;;;;;;22.17;12.23;;;6.20;99.90;;;;;;4926288;29;20396;-66
2022/05/05 04:55:45;;;;;;;22.58;12.43;;;6.30;99.90;;;;;;4922047;29;20052;-66
2022/05/05 04:58:11;;;;;;;18.63;11.38;;;6.30;99.90;;;;;;4928354;29;20051;-66
2022/05/05 05:00:36;;;;;;;21.75;13.15;;;6.30;99.90;;;;;;4927818;29;20051;-65
2022/05/05 05:03:02;;;;;;;21.30;13.25;;;6.40;99.90;;;;;;4926018;29;20043;-66
2022/05/05 05:05:28;;;;;;;27.30;13.45;;;6.50;99.90;;;;;;4922301;29;20569;-65
2022/05/05 05:07:53;;;;;;;23.63;14.25;;;6.60;99.90;;;;;;4921194;28;20055;-66
2022/05/05 05:10:19;;;;;;;21.42;13.68;;;6.70;99.90;;;;;;4933476;29;20156;-66
2022/05/05 05:12:44;;;;;;;25.75;14.45;;;6.70;99.90;;;;;;4937025;29;20039;-65
2022/05/05 05:15:10;;;;;;;24.50;13.27;;;6.80;99.90;;;;;;4926539;29;20517;-65
2022/05/05 05:17:36;;;;;;;24.98;13.60;;;6.80;99.90;;;;;;4925952;29;20447;-65
2022/05/05 05:20:03;;;;;;;24.92;13.93;;;6.80;99.90;;;;;;4941849;29;20071;-66
2022/05/05 05:22:29;;;;;;;31.42;15.30;;;6.90;99.90;;;;;;4937957;29;20043;-67
2022/05/05 05:24:55;;;;;;;23.58;14.45;;;6.90;99.90;;;;;;4930727;29;20043;-66
2022/05/05 05:27:20;;;;;;;22.45;14.07;;;6.90;99.90;;;;;;4932966;29;20513;-66
2022/05/05 05:29:46;;;;;;;26.45;14.10;;;6.90;99.90;;;;;;4938463;29;20131;-66
2022/05/05 05:32:12;;;;;;;27.02;14.63;;;7.00;99.90;;;;;;4924327;29;20043;-66
2022/05/05 05:34:38;;;;;;;25.17;14.73;;;7.10;99.90;;;;;;4926890;29;20059;-66
2022/05/05 05:37:04;;;;;;;29.58;14.52;;;7.10;99.90;;;;;;4930759;29;20052;-66
2022/05/05 05:39:30;;;;;;;27.27;14.43;;;7.10;99.90;;;;;;4909913;29;20047;-66
2022/05/05 05:41:57;;;;;;;28.50;15.65;;;7.20;99.90;;;;;;4920945;29;20047;-66
2022/05/05 05:44:22;;;;;;;31.05;16.50;;;7.30;99.90;;;;;;4936664;29;20158;-66
2022/05/05 05:46:48;;;;;;;35.38;15.27;;;7.30;99.90;;;;;;4933158;29;20160;-66
2022/05/05 05:49:13;;;;;;;31.02;15.85;;;7.30;99.90;;;;;;4929498;29;20050;-66
2022/05/05 05:51:39;;;;;;;25.02;15.07;;;7.40;99.90;;;;;;4929241;29;20494;-66
2022/05/05 05:54:05;;;;;;;25.80;15.20;;;7.50;99.90;;;;;;4923119;29;20475;-65
2022/05/05 05:56:32;;;;;;;28.58;15.13;;;7.60;99.90;;;;;;4920726;29;20074;-66
2022/05/05 05:59:01;;;;;;;25.80;15.27;;;7.80;99.90;;;;;;4924656;29;20043;-66
2022/05/05 06:03:53;;;;;;;22.92;14.50;;;7.90;99.90;;;;;;4930834;29;20039;-67
2022/05/05 06:04:12;;;;;;;30.90;16.48;;;8.10;99.90;;;;;;4930885;29;20554;-66
2022/05/05 06:06:38;;;;;;;31.67;15.75;;;8.40;99.90;;;;;;4919012;29;20090;-66
2022/05/05 06:09:04;;;;;;;28.25;16.40;;;8.60;99.90;;;;;;4924018;29;20071;-66
2022/05/05 06:11:30;;;;;;;27.55;15.07;;;8.70;99.90;;;;;;4931608;29;20051;-66
2022/05/05 06:13:57;;;;;;;26.30;15.63;;;8.80;99.90;;;;;;4920384;29;20118;-66
2022/05/05 06:16:23;;;;;;;33.20;15.23;;;8.90;99.90;;;;;;4920442;29;20114;-66
2022/05/05 06:18:48;;;;;;;26.30;15.65;;;8.90;99.90;;;;;;4929945;29;20593;-65
2022/05/05 06:21:14;;;;;;;27.42;15.45;;;9.00;99.90;;;;;;4931105;29;20542;-66
2022/05/05 06:23:41;;;;;;;25.98;15.65;;;9.00;99.90;;;;;;4923475;29;20128;-66
2022/05/05 06:26:06;;;;;;;24.17;15.02;;;9.00;99.90;;;;;;4995342;23;20082;-65
2022/05/05 06:28:35;;;;;;;24.92;16.25;;;9.00;99.90;;;;;;4969349;28;20035;-65
2022/05/05 06:31:01;;;;;;;26.85;16.17;;;9.10;99.90;;;;;;4962015;28;20448;-67
2022/05/05 06:33:27;;;;;;;22.92;14.82;;;9.10;99.90;;;;;;4967407;28;20042;-66
2022/05/05 06:35:52;;;;;;;26.48;15.65;;;9.30;99.90;;;;;;4957838;28;20046;-64
2022/05/05 06:38:18;;;;;;;28.23;15.38;;;9.30;99.90;;;;;;4949768;29;20046;-64
2022/05/05 06:40:44;;;;;;;24.42;15.60;;;9.50;99.90;;;;;;4939819;29;20044;-66
2022/05/05 06:43:10;;;;;;;29.48;15.80;;;9.60;99.90;;;;;;4938507;28;20039;-66
2022/05/05 06:45:35;;;;;;;23.50;15.15;;;9.70;99.90;;;;;;4950301;28;20446;-64
2022/05/05 06:48:01;;;;;;;25.15;15.05;;;9.80;99.90;;;;;;4934890;29;20596;-65
2022/05/05 06:50:28;;;;;;;28.15;16.02;;;10.00;99.90;;;;;;4953096;28;20042;-66
2022/05/05 06:52:53;;;;;;;29.10;16.15;;;10.10;99.90;;;;;;4953164;28;20042;-66
2022/05/05 06:55:19;;;;;;;25.85;15.73;;;10.20;99.90;;;;;;4949860;29;20035;-66
2022/05/05 06:57:46;;;;;;;28.27;15.77;;;10.30;99.90;;;;;;4944051;29;20044;-66
2022/05/05 07:00:12;;;;;;;27.42;15.55;;;10.50;99.90;;;;;;4953253;28;20045;-66
2022/05/05 07:02:37;;;;;;;28.20;15.13;;;10.60;99.90;;;;;;4953890;28;20086;-66
2022/05/05 07:07:47;;;;;;;28.88;14.50;;;10.80;99.90;;;;;;4957487;29;20043;-66
2022/05/05 07:13:17;;;;;;;25.55;14.70;;;11.10;99.90;;;;;;4914817;29;20499;-66
2022/05/05 07:15:43;;;;;;;22.83;13.68;;;11.20;99.90;;;;;;4917616;29;20040;-66
2022/05/05 07:18:09;;;;;;;30.67;14.23;;;11.30;99.90;;;;;;4937840;28;20055;-66
2022/05/05 07:20:35;;;;;;;23.20;13.73;;;11.40;99.90;;;;;;4948146;28;20039;-66
2022/05/05 07:23:00;;;;;;;24.13;14.32;;;11.50;99.90;;;;;;4950947;29;20032;-66
2022/05/05 07:25:26;;;;;;;24.73;13.02;;;11.70;99.90;;;;;;4959276;28;20523;-66
2022/05/05 07:27:52;;;;;;;19.00;12.65;;;11.80;99.90;;;;;;4953681;28;20751;-66
2022/05/05 07:30:19;;;;;;;24.73;12.57;;;11.80;99.90;;;;;;4952449;29;20031;-66
2022/05/05 07:32:44;;;;;;;22.25;12.15;;;11.80;99.90;;;;;;4959133;28;20426;-66
2022/05/05 07:35:13;;;;;;;19.35;11.05;;;12.00;99.90;;;;;;4959530;28;20501;-66
2022/05/05 07:37:39;;;;;;;19.35;11.48;;;12.10;99.90;;;;;;4950877;28;20043;-66
2022/05/05 07:40:06;;;;;;;19.77;13.00;;;12.20;99.90;;;;;;4955742;28;20527;-66
2022/05/05 07:42:32;;;;;;;23.20;11.10;;;12.30;99.90;;;;;;4959223;28;20121;-66
2022/05/05 07:44:57;;;;;;;23.48;10.43;;;12.30;99.90;;;;;;4953149;28;20119;-66
2022/05/05 07:47:23;;;;;;;16.90;10.05;;;12.40;99.90;;;;;;4951011;29;20557;-66
2022/05/05 07:49:49;;;;;;;17.92;10.18;;;12.50;99.90;;;;;;4959123;28;20047;-66
2022/05/05 07:52:14;;;;;;;13.52;8.20;;;12.60;99.90;;;;;;4954644;28;20142;-66
2022/05/05 07:54:44;;;;;;;14.48;9.60;;;12.70;99.90;;;;;;4940039;29;20047;-66
2022/05/05 07:57:12;;;;;;;18.17;8.80;;;12.80;99.90;;;;;;4953380;28;20184;-66
2022/05/05 07:59:38;;;;;;;17.98;9.27;;;12.90;99.90;;;;;;4959317;28;20078;-66
2022/05/05 08:02:08;;;;;;;19.98;9.52;;;13.10;99.90;;;;;;4959259;28;20043;-66
2022/05/05 08:04:33;;;;;;;16.08;9.98;;;13.30;99.90;;;;;;4950991;28;20075;-66
2022/05/05 08:06:59;;;;;;;21.33;9.70;;;13.50;99.90;;;;;;4951429;28;20470;-66
2022/05/05 08:09:24;;;;;;;17.45;9.32;;;13.60;99.90;;;;;;4958791;28;20139;-66
2022/05/05 08:11:50;;;;;;;19.23;10.20;;;13.70;99.90;;;;;;4954509;29;20078;-66
2022/05/05 08:14:16;;;;;;;20.70;9.85;;;13.90;99.90;;;;;;4957296;28;20478;-66
2022/05/05 08:16:41;;;;;;;19.25;9.38;;;14.10;99.90;;;;;;4956416;28;20050;-66
2022/05/05 08:19:07;;;;;;;15.38;8.57;;;14.30;99.90;;;;;;4936177;28;20039;-66
2022/05/05 08:21:33;;;;;;;14.27;8.00;;;14.50;99.90;;;;;;4947656;29;20044;-66
2022/05/05 08:29:27;;;;;;;18.58;9.25;;;14.80;99.90;;;;;;4948861;29;20039;-66
2022/05/05 08:31:53;;;;;;;17.42;10.02;;;14.80;99.90;;;;;;4954038;28;20043;-66
2022/05/05 08:34:19;;;;;;;17.85;9.85;;;15.00;99.90;;;;;;4953698;28;20449;-66
2022/05/05 08:36:45;;;;;;;15.07;9.48;;;15.10;99.90;;;;;;4948387;28;20098;-66
2022/05/05 08:39:10;;;;;;;12.27;9.27;;;15.20;99.90;;;;;;4954820;28;20556;-66
2022/05/05 08:41:38;;;;;;;16.25;9.70;;;15.30;99.90;;;;;;4955619;28;20047;-66
2022/05/05 08:44:03;;;;;;;14.73;8.15;;;15.50;99.90;;;;;;4950913;28;20039;-66
2022/05/05 08:46:33;;;;;;;12.20;7.40;;;15.70;99.90;;;;;;4955325;28;20401;-66
2022/05/05 08:49:03;;;;;;;11.90;7.22;;;15.80;99.90;;;;;;4954199;29;20031;-66
2022/05/05 08:51:57;;;;;;;15.43;8.68;;;15.90;96.60;;;;;;4952504;28;20039;-66
2022/05/05 08:54:25;;;;;;;27.20;8.75;;;16.10;99.90;;;;;;4939911;29;20466;-66
2022/05/05 08:56:51;;;;;;;14.85;9.02;;;16.20;99.90;;;;;;4952990;28;20422;-65
2022/05/05 08:59:18;;;;;;;12.90;8.38;;;16.10;99.40;;;;;;4953583;28;20047;-66
2022/05/05 09:01:44;;;;;;;18.17;8.68;;;16.20;99.70;;;;;;4942153;28;20051;-66
2022/05/05 09:04:10;;;;;;;16.55;8.65;;;16.20;99.90;;;;;;4951929;29;20443;-66
2022/05/05 09:06:46;;;;;;;15.75;10.10;;;16.20;99.50;;;;;;4953692;28;20063;-65
2022/05/05 09:09:33;;;;;;;12.02;8.40;;;16.20;97.40;;;;;;4944378;28;20106;-66
2022/05/05 09:12:14;;;;;;;17.45;9.40;;;16.30;99.40;;;;;;4942473;29;20047;-66
2022/05/05 09:14:48;;;;;;;17.70;9.43;;;16.50;99.30;;;;;;4950763;29;20414;-66
2022/05/05 09:17:19;;;;;;;20.20;8.73;;;16.60;99.50;;;;;;4947529;28;20541;-66
2022/05/05 09:19:47;;;;;;;16.77;9.05;;;16.70;98.40;;;;;;4937242;29;20047;-66
2022/05/05 09:22:15;;;;;;;13.68;9.55;;;16.90;99.30;;;;;;4954096;28;20039;-66
2022/05/05 09:24:46;;;;;;;13.85;8.48;;;17.10;98.00;;;;;;4936122;28;20031;-66
2022/05/05 09:27:27;;;;;;;13.32;8.20;;;17.20;98.10;;;;;;4951170;28;20046;-66
2022/05/05 09:30:10;;;;;;;10.98;7.35;;;17.30;96.80;;;;;;4954717;28;20082;-66
2022/05/05 09:32:41;;;;;;;11.48;7.90;;;17.30;96.10;;;;;;4942618;28;20117;-66
2022/05/05 09:35:11;;;;;;;16.48;8.90;;;17.40;97.00;;;;;;4937884;28;20043;-66
2022/05/05 09:37:47;;;;;;;15.45;8.80;;;17.50;98.10;;;;;;4950985;29;20043;-66
2022/05/05 09:40:17;;;;;;;13.27;8.43;;;17.60;98.10;;;;;;4954944;28;20077;-66
2022/05/05 09:42:53;;;;;;;11.23;7.53;;;17.60;97.90;;;;;;4943012;29;20102;-65
2022/05/05 09:45:23;;;;;;;11.93;8.13;;;17.60;95.50;;;;;;4954084;28;20042;-65
2022/05/05 09:47:53;;;;;;;11.70;7.18;;;17.70;97.80;;;;;;4954801;28;20058;-65
2022/05/05 09:50:21;;;;;;;21.17;7.07;;;17.90;97.00;;;;;;4936038;28;20078;-65
2022/05/05 09:58:21;;;;;;;12.32;7.57;;;18.10;96.50;;;;;;4947672;29;20035;-65
2022/05/05 10:00:52;;;;;;;11.80;8.07;;;17.90;95.60;;;;;;4941007;28;20098;-65
2022/05/05 10:06:18;;;;;;;19.23;8.35;;;18.10;96.10;;;;;;4939965;29;20130;-65
2022/05/05 10:08:46;;;;;;;10.82;8.18;;;18.10;95.00;;;;;;4931837;29;20075;-65
2022/05/05 10:11:14;;;;;;;13.52;8.70;;;18.10;95.70;;;;;;4946235;29;20050;-65
2022/05/05 10:13:40;;;;;;;14.82;8.27;;;18.00;94.60;;;;;;4953844;28;20493;-65
2022/05/05 10:16:07;;;;;;;15.45;8.93;;;18.20;94.40;;;;;;4946258;28;20951;-65
2022/05/05 10:18:37;;;;;;;15.57;8.50;;;18.20;93.00;;;;;;4943766;29;20039;-65
2022/05/05 10:21:04;;;;;;;12.43;9.10;;;18.10;93.00;;;;;;4946491;29;20039;-65
2022/05/05 10:24:05;;;;;;;15.05;8.85;;;18.00;95.10;;;;;;4946669;28;20118;-65
2022/05/05 10:26:31;;;;;;;15.55;8.25;;;18.00;92.10;;;;;;4937966;29;20502;-65
2022/05/05 10:28:57;;;;;;;17.42;8.73;;;18.20;93.20;;;;;;4944648;29;20035;-65
2022/05/05 10:31:32;;;;;;;14.82;9.32;;;18.40;94.60;;;;;;4953731;28;20039;-65
2022/05/05 10:34:07;;;;;;;15.82;8.55;;;18.50;91.60;;;;;;4953596;28;20536;-65
2022/05/05 10:36:36;;;;;;;13.07;8.60;;;18.80;93.90;;;;;;4948125;28;20040;-65
2022/05/05 10:39:19;;;;;;;14.60;8.10;;;18.90;91.00;;;;;;4945459;29;20043;-65
2022/05/05 10:41:45;;;;;;;15.43;8.40;;;19.00;79.60;;;;;;4945165;28;20627;-65
2022/05/05 10:44:23;;;;;;;13.25;8.43;;;19.10;93.50;;;;;;4953334;28;20035;-65
2022/05/05 10:47:02;;;;;;;17.73;8.98;;;19.30;89.80;;;;;;4953767;28;20047;-65
2022/05/05 10:49:33;;;;;;;15.38;9.48;;;19.50;91.70;;;;;;4944032;28;20568;-65
2022/05/05 10:52:10;;;;;;;;;;;19.50;91.20;;;;;;4942616;29;20418;-65
2022/05/05 10:54:38;;;;;;;14.48;8.88;;;19.60;82.40;;;;;;4942962;28;19922;-65
2022/05/05 10:57:25;;;;;;;17.90;9.85;;;19.70;92.60;;;;;;4942876;28;20046;-65
2022/05/05 11:00:19;;;;;;;18.33;9.40;;;19.50;75.30;;;;;;4950218;29;20066;-65
2022/05/05 11:03:02;;;;;;;11.68;8.73;;;19.40;73.50;;;;;;4940186;28;20075;-65
2022/05/05 11:05:38;;;;;;;18.60;9.18;;;19.60;85.40;;;;;;4939288;28;20481;-65
2022/05/05 11:08:09;;;;;;;12.32;8.70;;;19.80;86.40;;;;;;4936498;29;20406;-65
2022/05/05 11:10:41;;;;;;;15.35;9.20;;;20.00;91.50;;;;;;4948706;28;20051;-65
2022/05/05 11:13:07;;;;;;;14.88;10.30;;;20.10;88.30;;;;;;4941283;28;20130;-65
2022/05/05 11:21:32;;;;;;;14.82;8.45;;;20.50;93.00;;;;;;4944035;29;20051;-65
2022/05/05 11:23:59;;;;;;;17.13;8.35;;;20.60;91.30;;;;;;4939715;29;20094;-65
2022/05/05 11:26:25;;;;;;;14.00;8.70;;;20.50;83.70;;;;;;4948789;28;20122;-65
2022/05/05 11:28:51;;;;;;;13.15;8.55;;;20.40;83.40;;;;;;4942530;29;21104;-65
2022/05/05 11:31:25;;;;;;;14.13;7.70;;;20.20;77.40;;;;;;4940916;29;20102;-65
2022/05/05 11:34:03;;;;;;;14.60;8.27;;;20.30;75.80;;;;;;4939525;28;20047;-66
2022/05/05 11:36:30;;;;;;;14.93;7.88;;;20.60;74.20;;;;;;4950736;28;20118;-66
2022/05/05 11:38:57;;;;;;;15.55;7.82;;;20.50;76.10;;;;;;4946166;28;20054;-66
2022/05/05 11:41:23;;;;;;;12.93;7.90;;;20.40;76.30;;;;;;4943392;28;20067;-66
2022/05/05 11:46:34;;;;;;;12.25;6.95;;;20.30;77.70;;;;;;4947487;28;20051;-66
2022/05/05 11:49:00;;;;;;;10.30;6.70;;;20.40;73.50;;;;;;4947472;28;20122;-66
2022/05/05 11:51:33;;;;;;;11.23;7.10;;;20.50;66.60;;;;;;4954952;28;20064;-66
2022/05/05 11:53:59;;;;;;;12.00;6.80;;;20.60;61.70;;;;;;4955427;28;20045;-66
2022/05/05 11:56:26;;;;;;;10.68;6.95;;;20.60;65.90;;;;;;4952110;28;20078;-66
2022/05/05 12:01:42;;;;;;;10.88;6.75;;;21.20;69.10;;;;;;4952596;28;20047;-66
2022/05/05 12:04:10;;;;;;;10.73;7.05;;;21.20;70.20;;;;;;4943787;28;20039;-66
2022/05/05 12:06:38;;;;;;;11.10;7.20;;;21.30;70.60;;;;;;4946167;29;20039;-66
2022/05/05 12:09:07;;;;;;;10.88;7.10;;;21.40;58.60;;;;;;4944747;28;20592;-66
2022/05/05 12:11:32;;;;;;;11.52;6.75;;;21.20;62.80;;;;;;4944975;28;20039;-66
2022/05/05 12:14:11;;;;;;;10.50;7.43;;;21.20;63.60;;;;;;4949150;29;20042;-66
2022/05/05 12:16:37;;;;;;;9.18;6.53;;;21.30;61.00;;;;;;4944331;29;20083;-65
2022/05/05 12:19:18;;;;;;;9.15;6.25;;;21.30;61.00;;;;;;4944987;29;20174;-66
2022/05/05 12:21:54;;;;;;;10.18;6.22;;;21.40;56.70;;;;;;4945423;29;20075;-66
2022/05/05 12:24:22;;;;;;;8.32;5.65;;;21.50;59.90;;;;;;4949049;29;20046;-66
2022/05/05 12:26:49;;;;;;;11.77;6.38;;;21.50;60.40;;;;;;4954313;28;20039;-66
2022/05/05 12:29:15;;;;;;;10.43;6.75;;;21.80;71.40;;;;;;4954839;28;20039;-66
2022/05/05 12:31:57;;;;;;;11.88;7.00;;;21.90;67.50;;;;;;4946279;29;20065;-65
2022/05/05 12:34:27;;;;;;;12.00;7.68;;;22.00;63.50;;;;;;4954167;28;20042;-65
2022/05/05 12:37:10;;;;;;;10.50;7.10;;;22.10;65.50;;;;;;4948537;28;20063;-66
2022/05/05 12:39:50;;;;;;;10.73;7.18;;;22.10;58.10;;;;;;4951315;29;20045;-65
2022/05/05 12:42:16;;;;;;;13.38;7.40;;;22.10;57.20;;;;;;4954262;28;20047;-66
2022/05/05 12:44:45;;;;;;;9.93;7.25;;;22.20;62.10;;;;;;4950497;28;20039;-66
2022/05/05 12:47:11;;;;;;;12.98;7.30;;;22.20;60.50;;;;;;4945594;29;20028;-66
2022/05/05 12:49:37;;;;;;;9.25;6.78;;;22.20;62.70;;;;;;4954559;28;20042;-66
2022/05/05 12:52:04;;;;;;;10.00;6.28;;;22.40;61.10;;;;;;4954658;28;20039;-66
2022/05/05 12:59:58;;;;;;;9.07;6.22;;;22.10;56.80;;;;;;4954343;29;20051;-66
2022/05/05 13:02:24;;;;;;;9.73;5.57;;;21.50;56.60;;;;;;4941933;28;20036;-65
2022/05/05 13:04:51;;;;;;;7.32;5.35;;;21.10;56.10;;;;;;4944903;29;20035;-65
2022/05/05 13:07:17;;;;;;;7.80;5.47;;;21.00;56.90;;;;;;4948990;28;20039;-66
2022/05/05 13:09:42;;;;;;;8.48;5.47;;;21.20;56.50;;;;;;4938049;29;20099;-66
2022/05/05 13:12:08;;;;;;;8.75;6.00;;;21.40;55.90;;;;;;4947855;29;20039;-66
2022/05/05 13:14:35;;;;;;;6.75;5.00;;;21.50;54.70;;;;;;4952591;28;20127;-66
2022/05/05 13:17:01;;;;;;;7.10;5.40;;;21.80;54.20;;;;;;4954430;28;20070;-65
2022/05/05 13:19:29;;;;;;;8.07;5.65;;;21.80;52.90;;;;;;4947708;28;20031;-66
2022/05/05 13:21:55;;;;;;;8.23;5.70;;;21.70;52.70;;;;;;4952831;29;20457;-65
2022/05/05 13:24:20;;;;;;;7.07;5.07;;;21.40;52.80;;;;;;4953866;28;20035;-65
2022/05/05 13:26:47;;;;;;;7.97;5.43;;;21.40;54.30;;;;;;4948990;28;20537;-66
2022/05/05 13:29:13;;;;;;;8.57;5.68;;;21.20;54.10;;;;;;4953318;28;20038;-65
2022/05/05 13:31:40;;;;;;;11.55;6.20;;;21.00;54.50;;;;;;4953550;28;20418;-63